sensor_id;sensor_type;location;lat;lon;timestamp;P1;durP1;ratioP1;P2;durP2;ratioP2
7013;SDS011;3547;50.774;12.918;2023-06-10T00:02:11;6.75;;;5.13;;
7013;SDS011;3547;50.774;12.918;2023-06-10T00:04:42;6.72;;;5.63;;
7013;SDS011;3547;50.774;12.918;2023-06-10T00:07:08;6.45;;;4.75;;
7013;SDS011;3547;50.774;12.918;2023-06-10T00:09:38;5.35;;;4.50;;
7013;SDS011;3547;50.774;12.918;2023-06-10T00:12:04;5.38;;;4.28;;
7013;SDS011;3547;50.774;12.918;2023-06-10T00:14:38;6.18;;;4.65;;
7013;SDS011;3547;50.774;12.918;2023-06-10T00:17:06;6.18;;;4.72;;
7013;SDS011;3547;50.774;12.918;2023-06-10T00:19:36;6.88;;;4.38;;
7013;SDS011;3547;50.774;12.918;2023-06-10T00:22:03;4.45;;;4.00;;
7013;SDS011;3547;50.774;12.918;2023-06-10T00:24:30;5.80;;;4.88;;
7013;SDS011;3547;50.774;12.918;2023-06-10T00:26:56;5.82;;;4.60;;
7013;SDS011;3547;50.774;12.918;2023-06-10T00:29:22;6.68;;;5.03;;
7013;SDS011;3547;50.774;12.918;2023-06-10T00:31:54;6.30;;;5.00;;
7013;SDS011;3547;50.774;12.918;2023-06-10T00:34:23;5.18;;;4.65;;
7013;SDS011;3547;50.774;12.918;2023-06-10T00:36:52;6.78;;;5.55;;
7013;SDS011;3547;50.774;12.918;2023-06-10T00:39:18;6.60;;;5.47;;
7013;SDS011;3547;50.774;12.918;2023-06-10T00:41:44;5.47;;;4.73;;
7013;SDS011;3547;50.774;12.918;2023-06-10T00:44:11;5.65;;;4.57;;
7013;SDS011;3547;50.774;12.918;2023-06-10T00:46:37;6.87;;;4.80;;
7013;SDS011;3547;50.774;12.918;2023-06-10T00:49:03;9.15;;;5.57;;
7013;SDS011;3547;50.774;12.918;2023-06-10T00:51:30;5.57;;;4.60;;
7013;SDS011;3547;50.774;12.918;2023-06-10T00:54:09;5.85;;;4.75;;
7013;SDS011;3547;50.774;12.918;2023-06-10T00:56:39;7.47;;;4.87;;
7013;SDS011;3547;50.774;12.918;2023-06-10T00:59:08;5.45;;;4.90;;
7013;SDS011;3547;50.774;12.918;2023-06-10T01:01:35;5.73;;;4.87;;
7013;SDS011;3547;50.774;12.918;2023-06-10T01:04:03;5.10;;;4.60;;
7013;SDS011;3547;50.774;12.918;2023-06-10T01:09:23;5.30;;;4.80;;
7013;SDS011;3547;50.774;12.918;2023-06-10T01:14:42;7.53;;;5.27;;
7013;SDS011;3547;50.774;12.918;2023-06-10T01:17:09;7.50;;;5.93;;
7013;SDS011;3547;50.774;12.918;2023-06-10T01:19:36;6.90;;;5.23;;
7013;SDS011;3547;50.774;12.918;2023-06-10T01:22:03;6.67;;;5.17;;
7013;SDS011;3547;50.774;12.918;2023-06-10T01:24:31;5.33;;;4.80;;
7013;SDS011;3547;50.774;12.918;2023-06-10T01:27:00;4.87;;;4.33;;
7013;SDS011;3547;50.774;12.918;2023-06-10T01:29:41;4.95;;;4.40;;
7013;SDS011;3547;50.774;12.918;2023-06-10T01:32:14;6.23;;;5.13;;
7013;SDS011;3547;50.774;12.918;2023-06-10T01:38:11;5.90;;;4.70;;
7013;SDS011;3547;50.774;12.918;2023-06-10T01:40:40;5.20;;;4.70;;
7013;SDS011;3547;50.774;12.918;2023-06-10T01:43:06;5.63;;;4.45;;
7013;SDS011;3547;50.774;12.918;2023-06-10T01:45:33;11.00;;;5.30;;
7013;SDS011;3547;50.774;12.918;2023-06-10T01:47:59;7.30;;;5.50;;
7013;SDS011;3547;50.774;12.918;2023-06-10T01:50:25;6.10;;;5.10;;
7013;SDS011;3547;50.774;12.918;2023-06-10T01:52:51;8.40;;;4.97;;
7013;SDS011;3547;50.774;12.918;2023-06-10T01:55:18;5.43;;;4.93;;
7013;SDS011;3547;50.774;12.918;2023-06-10T01:57:44;7.03;;;5.20;;
7013;SDS011;3547;50.774;12.918;2023-06-10T02:00:10;6.07;;;4.87;;
7013;SDS011;3547;50.774;12.918;2023-06-10T02:02:37;8.03;;;5.80;;
7013;SDS011;3547;50.774;12.918;2023-06-10T02:05:03;7.37;;;5.83;;
7013;SDS011;3547;50.774;12.918;2023-06-10T02:07:30;6.07;;;5.27;;
7013;SDS011;3547;50.774;12.918;2023-06-10T02:09:56;5.43;;;4.83;;
7013;SDS011;3547;50.774;12.918;2023-06-10T02:12:22;6.13;;;5.53;;
7013;SDS011;3547;50.774;12.918;2023-06-10T02:14:48;5.63;;;5.03;;
7013;SDS011;3547;50.774;12.918;2023-06-10T02:17:16;5.43;;;4.80;;
7013;SDS011;3547;50.774;12.918;2023-06-10T02:19:42;5.80;;;5.20;;
7013;SDS011;3547;50.774;12.918;2023-06-10T02:22:08;6.47;;;5.53;;
7013;SDS011;3547;50.774;12.918;2023-06-10T02:24:35;6.00;;;5.17;;
7013;SDS011;3547;50.774;12.918;2023-06-10T02:27:03;4.90;;;4.40;;
7013;SDS011;3547;50.774;12.918;2023-06-10T02:29:33;6.00;;;4.80;;
7013;SDS011;3547;50.774;12.918;2023-06-10T02:32:01;5.77;;;4.43;;
7013;SDS011;3547;50.774;12.918;2023-06-10T02:34:27;5.50;;;4.63;;
7013;SDS011;3547;50.774;12.918;2023-06-10T02:36:54;7.37;;;5.67;;
7013;SDS011;3547;50.774;12.918;2023-06-10T02:39:21;6.20;;;4.83;;
7013;SDS011;3547;50.774;12.918;2023-06-10T02:41:47;6.27;;;4.47;;
7013;SDS011;3547;50.774;12.918;2023-06-10T02:44:13;6.77;;;4.83;;
7013;SDS011;3547;50.774;12.918;2023-06-10T02:46:39;6.83;;;5.50;;
7013;SDS011;3547;50.774;12.918;2023-06-10T02:49:05;5.43;;;4.70;;
7013;SDS011;3547;50.774;12.918;2023-06-10T02:51:32;6.97;;;5.37;;
7013;SDS011;3547;50.774;12.918;2023-06-10T02:53:58;8.43;;;5.77;;
7013;SDS011;3547;50.774;12.918;2023-06-10T02:56:24;6.93;;;5.43;;
7013;SDS011;3547;50.774;12.918;2023-06-10T02:58:51;5.50;;;5.00;;
7013;SDS011;3547;50.774;12.918;2023-06-10T03:01:17;5.87;;;5.10;;
7013;SDS011;3547;50.774;12.918;2023-06-10T03:03:44;6.03;;;5.17;;
7013;SDS011;3547;50.774;12.918;2023-06-10T03:06:12;5.07;;;4.53;;
7013;SDS011;3547;50.774;12.918;2023-06-10T03:08:39;5.53;;;4.60;;
7013;SDS011;3547;50.774;12.918;2023-06-10T03:11:06;7.73;;;5.30;;
7013;SDS011;3547;50.774;12.918;2023-06-10T03:13:32;7.70;;;5.23;;
7013;SDS011;3547;50.774;12.918;2023-06-10T03:15:58;5.90;;;5.03;;
7013;SDS011;3547;50.774;12.918;2023-06-10T03:18:25;5.90;;;5.07;;
7013;SDS011;3547;50.774;12.918;2023-06-10T03:20:53;5.73;;;4.60;;
7013;SDS011;3547;50.774;12.918;2023-06-10T03:23:20;6.00;;;4.73;;
7013;SDS011;3547;50.774;12.918;2023-06-10T03:25:47;6.77;;;5.47;;
7013;SDS011;3547;50.774;12.918;2023-06-10T03:28:13;6.03;;;4.93;;
7013;SDS011;3547;50.774;12.918;2023-06-10T03:30:39;6.83;;;4.90;;
7013;SDS011;3547;50.774;12.918;2023-06-10T03:33:05;6.77;;;5.40;;
7013;SDS011;3547;50.774;12.918;2023-06-10T03:35:31;5.63;;;4.50;;
7013;SDS011;3547;50.774;12.918;2023-06-10T03:37:58;6.13;;;5.03;;
7013;SDS011;3547;50.774;12.918;2023-06-10T03:40:24;7.97;;;5.93;;
7013;SDS011;3547;50.774;12.918;2023-06-10T03:42:50;7.22;;;4.65;;
7013;SDS011;3547;50.774;12.918;2023-06-10T03:45:16;5.30;;;4.80;;
7013;SDS011;3547;50.774;12.918;2023-06-10T03:47:43;5.17;;;4.67;;
7013;SDS011;3547;50.774;12.918;2023-06-10T03:50:09;6.00;;;5.37;;
7013;SDS011;3547;50.774;12.918;2023-06-10T03:52:36;6.07;;;5.13;;
7013;SDS011;3547;50.774;12.918;2023-06-10T03:55:03;5.77;;;4.57;;
7013;SDS011;3547;50.774;12.918;2023-06-10T03:57:30;6.00;;;4.97;;
7013;SDS011;3547;50.774;12.918;2023-06-10T03:59:56;4.60;;;4.20;;
7013;SDS011;3547;50.774;12.918;2023-06-10T04:02:23;6.70;;;5.10;;
7013;SDS011;3547;50.774;12.918;2023-06-10T04:04:49;5.75;;;4.80;;
7013;SDS011;3547;50.774;12.918;2023-06-10T04:07:16;5.63;;;4.87;;
7013;SDS011;3547;50.774;12.918;2023-06-10T04:09:45;7.63;;;5.17;;
7013;SDS011;3547;50.774;12.918;2023-06-10T04:12:12;6.55;;;5.05;;
7013;SDS011;3547;50.774;12.918;2023-06-10T04:14:38;5.72;;;4.57;;
7013;SDS011;3547;50.774;12.918;2023-06-10T04:17:04;6.05;;;4.55;;
7013;SDS011;3547;50.774;12.918;2023-06-10T04:19:34;7.28;;;5.15;;
7013;SDS011;3547;50.774;12.918;2023-06-10T04:22:00;7.57;;;5.88;;
7013;SDS011;3547;50.774;12.918;2023-06-10T04:24:27;6.22;;;5.18;;
7013;SDS011;3547;50.774;12.918;2023-06-10T04:26:54;8.13;;;6.10;;
7013;SDS011;3547;50.774;12.918;2023-06-10T04:29:20;7.03;;;5.90;;
7013;SDS011;3547;50.774;12.918;2023-06-10T04:31:46;7.33;;;5.23;;
7013;SDS011;3547;50.774;12.918;2023-06-10T04:34:12;5.77;;;5.03;;
7013;SDS011;3547;50.774;12.918;2023-06-10T04:36:38;6.38;;;5.25;;
7013;SDS011;3547;50.774;12.918;2023-06-10T04:39:05;6.82;;;4.78;;
7013;SDS011;3547;50.774;12.918;2023-06-10T04:41:31;6.15;;;5.32;;
7013;SDS011;3547;50.774;12.918;2023-06-10T04:43:57;6.35;;;5.40;;
7013;SDS011;3547;50.774;12.918;2023-06-10T04:46:23;5.32;;;4.82;;
7013;SDS011;3547;50.774;12.918;2023-06-10T04:48:50;7.20;;;5.77;;
7013;SDS011;3547;50.774;12.918;2023-06-10T04:51:16;6.05;;;4.95;;
7013;SDS011;3547;50.774;12.918;2023-06-10T04:53:42;6.18;;;5.05;;
7013;SDS011;3547;50.774;12.918;2023-06-10T04:56:09;5.88;;;5.20;;
7013;SDS011;3547;50.774;12.918;2023-06-10T04:58:35;6.65;;;5.63;;
7013;SDS011;3547;50.774;12.918;2023-06-10T05:01:01;7.53;;;5.63;;
7013;SDS011;3547;50.774;12.918;2023-06-10T05:03:28;6.70;;;5.30;;
7013;SDS011;3547;50.774;12.918;2023-06-10T05:05:54;7.15;;;5.20;;
7013;SDS011;3547;50.774;12.918;2023-06-10T05:08:20;5.75;;;4.70;;
7013;SDS011;3547;50.774;12.918;2023-06-10T05:10:46;5.50;;;4.97;;
7013;SDS011;3547;50.774;12.918;2023-06-10T05:13:13;6.22;;;5.63;;
7013;SDS011;3547;50.774;12.918;2023-06-10T05:15:39;6.30;;;5.40;;
7013;SDS011;3547;50.774;12.918;2023-06-10T05:18:10;6.97;;;4.97;;
7013;SDS011;3547;50.774;12.918;2023-06-10T05:20:38;5.72;;;5.22;;
7013;SDS011;3547;50.774;12.918;2023-06-10T05:23:14;9.45;;;5.32;;
7013;SDS011;3547;50.774;12.918;2023-06-10T05:25:45;6.78;;;5.43;;
7013;SDS011;3547;50.774;12.918;2023-06-10T05:28:11;6.60;;;4.93;;
7013;SDS011;3547;50.774;12.918;2023-06-10T05:30:38;6.47;;;4.97;;
7013;SDS011;3547;50.774;12.918;2023-06-10T05:33:04;5.28;;;4.78;;
7013;SDS011;3547;50.774;12.918;2023-06-10T05:35:30;5.28;;;4.75;;
7013;SDS011;3547;50.774;12.918;2023-06-10T05:37:57;6.93;;;4.93;;
7013;SDS011;3547;50.774;12.918;2023-06-10T05:40:23;8.05;;;4.95;;
7013;SDS011;3547;50.774;12.918;2023-06-10T05:42:49;4.90;;;4.45;;
7013;SDS011;3547;50.774;12.918;2023-06-10T05:45:15;6.57;;;4.53;;
7013;SDS011;3547;50.774;12.918;2023-06-10T05:47:42;5.95;;;4.70;;
7013;SDS011;3547;50.774;12.918;2023-06-10T05:50:11;5.65;;;4.32;;
7013;SDS011;3547;50.774;12.918;2023-06-10T05:52:37;4.70;;;4.28;;
7013;SDS011;3547;50.774;12.918;2023-06-10T05:55:10;4.10;;;3.53;;
7013;SDS011;3547;50.774;12.918;2023-06-10T05:57:57;4.93;;;4.43;;
7013;SDS011;3547;50.774;12.918;2023-06-10T06:00:26;3.97;;;3.58;;
7013;SDS011;3547;50.774;12.918;2023-06-10T06:02:53;3.83;;;3.50;;
7013;SDS011;3547;50.774;12.918;2023-06-10T06:05:19;4.43;;;4.03;;
7013;SDS011;3547;50.774;12.918;2023-06-10T06:11:08;4.68;;;3.55;;
7013;SDS011;3547;50.774;12.918;2023-06-10T06:13:34;4.50;;;3.80;;
7013;SDS011;3547;50.774;12.918;2023-06-10T06:16:00;3.30;;;2.95;;
7013;SDS011;3547;50.774;12.918;2023-06-10T06:18:26;3.20;;;2.90;;
7013;SDS011;3547;50.774;12.918;2023-06-10T06:20:53;4.25;;;3.80;;
7013;SDS011;3547;50.774;12.918;2023-06-10T06:23:19;5.30;;;3.75;;
7013;SDS011;3547;50.774;12.918;2023-06-10T06:25:45;3.80;;;3.50;;
7013;SDS011;3547;50.774;12.918;2023-06-10T06:28:11;3.30;;;3.00;;
7013;SDS011;3547;50.774;12.918;2023-06-10T06:30:37;3.78;;;3.25;;
7013;SDS011;3547;50.774;12.918;2023-06-10T06:33:03;4.00;;;2.92;;
7013;SDS011;3547;50.774;12.918;2023-06-10T06:35:30;3.83;;;3.42;;
7013;SDS011;3547;50.774;12.918;2023-06-10T06:37:58;3.47;;;3.17;;
7013;SDS011;3547;50.774;12.918;2023-06-10T06:40:24;4.65;;;3.17;;
7013;SDS011;3547;50.774;12.918;2023-06-10T06:42:54;3.78;;;3.47;;
7013;SDS011;3547;50.774;12.918;2023-06-10T06:45:20;4.38;;;3.88;;
7013;SDS011;3547;50.774;12.918;2023-06-10T06:47:46;3.60;;;3.30;;
7013;SDS011;3547;50.774;12.918;2023-06-10T06:50:12;3.83;;;3.42;;
7013;SDS011;3547;50.774;12.918;2023-06-10T06:52:42;3.45;;;3.15;;
7013;SDS011;3547;50.774;12.918;2023-06-10T06:55:08;5.15;;;3.65;;
7013;SDS011;3547;50.774;12.918;2023-06-10T06:57:34;4.15;;;3.58;;
7013;SDS011;3547;50.774;12.918;2023-06-10T07:00:02;9.88;;;4.32;;
7013;SDS011;3547;50.774;12.918;2023-06-10T07:02:28;6.07;;;4.05;;
7013;SDS011;3547;50.774;12.918;2023-06-10T07:04:55;4.93;;;4.40;;
7013;SDS011;3547;50.774;12.918;2023-06-10T07:07:21;3.97;;;3.58;;
7013;SDS011;3547;50.774;12.918;2023-06-10T07:09:47;5.05;;;3.75;;
7013;SDS011;3547;50.774;12.918;2023-06-10T07:12:14;4.95;;;3.67;;
7013;SDS011;3547;50.774;12.918;2023-06-10T07:14:40;3.80;;;3.50;;
7013;SDS011;3547;50.774;12.918;2023-06-10T07:17:06;4.00;;;3.60;;
7013;SDS011;3547;50.774;12.918;2023-06-10T07:19:33;4.13;;;3.53;;
7013;SDS011;3547;50.774;12.918;2023-06-10T07:21:59;4.28;;;3.75;;
7013;SDS011;3547;50.774;12.918;2023-06-10T07:24:25;4.25;;;3.47;;
7013;SDS011;3547;50.774;12.918;2023-06-10T07:26:51;3.65;;;3.35;;
7013;SDS011;3547;50.774;12.918;2023-06-10T07:29:18;4.72;;;4.20;;
7013;SDS011;3547;50.774;12.918;2023-06-10T07:31:44;4.90;;;3.70;;
7013;SDS011;3547;50.774;12.918;2023-06-10T07:34:13;8.68;;;3.80;;
7013;SDS011;3547;50.774;12.918;2023-06-10T07:36:39;4.22;;;3.65;;
7013;SDS011;3547;50.774;12.918;2023-06-10T07:39:05;6.07;;;4.20;;
7013;SDS011;3547;50.774;12.918;2023-06-10T07:41:32;4.72;;;3.78;;
7013;SDS011;3547;50.774;12.918;2023-06-10T07:44:02;3.97;;;3.67;;
7013;SDS011;3547;50.774;12.918;2023-06-10T07:46:28;4.25;;;3.85;;
7013;SDS011;3547;50.774;12.918;2023-06-10T07:48:54;5.32;;;3.80;;
7013;SDS011;3547;50.774;12.918;2023-06-10T07:51:20;3.97;;;3.67;;
7013;SDS011;3547;50.774;12.918;2023-06-10T07:53:47;4.90;;;3.60;;
7013;SDS011;3547;50.774;12.918;2023-06-10T07:56:13;7.72;;;4.43;;
7013;SDS011;3547;50.774;12.918;2023-06-10T07:58:39;3.92;;;3.50;;
7013;SDS011;3547;50.774;12.918;2023-06-10T08:01:06;7.55;;;4.47;;
7013;SDS011;3547;50.774;12.918;2023-06-10T08:03:34;4.57;;;3.88;;
7013;SDS011;3547;50.774;12.918;2023-06-10T08:06:02;4.43;;;3.97;;
7013;SDS011;3547;50.774;12.918;2023-06-10T08:08:31;6.80;;;3.88;;
7013;SDS011;3547;50.774;12.918;2023-06-10T08:10:57;5.13;;;4.22;;
7013;SDS011;3547;50.774;12.918;2023-06-10T08:13:31;6.35;;;4.22;;
7013;SDS011;3547;50.774;12.918;2023-06-10T08:15:58;5.18;;;4.55;;
7013;SDS011;3547;50.774;12.918;2023-06-10T08:18:24;4.43;;;4.03;;
7013;SDS011;3547;50.774;12.918;2023-06-10T08:20:50;4.35;;;3.85;;
7013;SDS011;3547;50.774;12.918;2023-06-10T08:23:19;5.18;;;4.28;;
7013;SDS011;3547;50.774;12.918;2023-06-10T08:25:46;4.50;;;4.10;;
7013;SDS011;3547;50.774;12.918;2023-06-10T08:28:15;6.32;;;4.65;;
7013;SDS011;3547;50.774;12.918;2023-06-10T08:30:47;4.63;;;3.75;;
7013;SDS011;3547;50.774;12.918;2023-06-10T08:33:14;4.25;;;3.85;;
7013;SDS011;3547;50.774;12.918;2023-06-10T08:35:40;4.15;;;3.75;;
7013;SDS011;3547;50.774;12.918;2023-06-10T08:38:06;4.40;;;3.97;;
7013;SDS011;3547;50.774;12.918;2023-06-10T08:40:33;5.85;;;4.13;;
7013;SDS011;3547;50.774;12.918;2023-06-10T08:45:29;6.57;;;4.03;;
7013;SDS011;3547;50.774;12.918;2023-06-10T08:48:02;5.30;;;4.30;;
7013;SDS011;3547;50.774;12.918;2023-06-10T08:50:35;5.25;;;4.05;;
7013;SDS011;3547;50.774;12.918;2023-06-10T08:53:04;5.38;;;3.95;;
7013;SDS011;3547;50.774;12.918;2023-06-10T08:55:35;4.65;;;4.25;;
7013;SDS011;3547;50.774;12.918;2023-06-10T08:58:03;8.70;;;3.78;;
7013;SDS011;3547;50.774;12.918;2023-06-10T09:00:30;5.03;;;4.35;;
7013;SDS011;3547;50.774;12.918;2023-06-10T09:02:58;4.28;;;3.88;;
7013;SDS011;3547;50.774;12.918;2023-06-10T09:05:26;4.32;;;3.92;;
7013;SDS011;3547;50.774;12.918;2023-06-10T09:07:54;4.93;;;4.00;;
7013;SDS011;3547;50.774;12.918;2023-06-10T09:10:22;4.88;;;4.13;;
7013;SDS011;3547;50.774;12.918;2023-06-10T09:12:49;4.05;;;3.65;;
7013;SDS011;3547;50.774;12.918;2023-06-10T09:15:18;6.65;;;4.20;;
7013;SDS011;3547;50.774;12.918;2023-06-10T09:17:44;6.82;;;4.38;;
7013;SDS011;3547;50.774;12.918;2023-06-10T09:20:11;8.95;;;4.18;;
7013;SDS011;3547;50.774;12.918;2023-06-10T09:22:37;5.28;;;4.00;;
7013;SDS011;3547;50.774;12.918;2023-06-10T09:25:06;4.28;;;3.88;;
7013;SDS011;3547;50.774;12.918;2023-06-10T09:27:48;5.35;;;4.70;;
7013;SDS011;3547;50.774;12.918;2023-06-10T09:31:13;4.72;;;4.07;;
7013;SDS011;3547;50.774;12.918;2023-06-10T09:33:45;4.50;;;4.13;;
7013;SDS011;3547;50.774;12.918;2023-06-10T09:45:57;4.90;;;3.83;;
7013;SDS011;3547;50.774;12.918;2023-06-10T09:48:34;6.13;;;3.80;;
7013;SDS011;3547;50.774;12.918;2023-06-10T09:51:08;3.55;;;3.25;;
7013;SDS011;3547;50.774;12.918;2023-06-10T09:53:39;3.90;;;3.42;;
7013;SDS011;3547;50.774;12.918;2023-06-10T09:56:08;3.42;;;3.13;;
7013;SDS011;3547;50.774;12.918;2023-06-10T09:58:35;3.88;;;3.50;;
7013;SDS011;3547;50.774;12.918;2023-06-10T10:01:09;4.30;;;3.45;;
7013;SDS011;3547;50.774;12.918;2023-06-10T10:07:02;3.50;;;2.53;;
7013;SDS011;3547;50.774;12.918;2023-06-10T10:09:28;4.03;;;2.75;;
7013;SDS011;3547;50.774;12.918;2023-06-10T10:11:55;3.15;;;2.85;;
7013;SDS011;3547;50.774;12.918;2023-06-10T10:14:23;3.55;;;3.10;;
7013;SDS011;3547;50.774;12.918;2023-06-10T10:16:51;4.15;;;3.50;;
7013;SDS011;3547;50.774;12.918;2023-06-10T10:19:20;5.03;;;3.28;;
7013;SDS011;3547;50.774;12.918;2023-06-10T10:22:19;4.38;;;3.42;;
7013;SDS011;3547;50.774;12.918;2023-06-10T10:24:55;3.42;;;2.97;;
7013;SDS011;3547;50.774;12.918;2023-06-10T10:27:28;6.97;;;3.40;;
7013;SDS011;3547;50.774;12.918;2023-06-10T10:30:03;4.13;;;3.40;;
7013;SDS011;3547;50.774;12.918;2023-06-10T10:32:43;3.80;;;3.28;;
7013;SDS011;3547;50.774;12.918;2023-06-10T10:35:35;5.40;;;3.65;;
7013;SDS011;3547;50.774;12.918;2023-06-10T10:42:05;4.30;;;3.85;;
7013;SDS011;3547;50.774;12.918;2023-06-10T10:44:40;5.22;;;3.78;;
7013;SDS011;3547;50.774;12.918;2023-06-10T10:47:12;4.63;;;3.60;;
7013;SDS011;3547;50.774;12.918;2023-06-10T10:49:57;6.47;;;3.70;;
7013;SDS011;3547;50.774;12.918;2023-06-10T10:53:20;4.95;;;3.83;;
7013;SDS011;3547;50.774;12.918;2023-06-10T10:56:06;4.63;;;3.88;;
7013;SDS011;3547;50.774;12.918;2023-06-10T10:58:35;5.00;;;4.47;;
7013;SDS011;3547;50.774;12.918;2023-06-10T11:01:13;5.03;;;4.20;;
7013;SDS011;3547;50.774;12.918;2023-06-10T11:03:46;4.60;;;4.20;;
7013;SDS011;3547;50.774;12.918;2023-06-10T11:06:18;3.88;;;3.58;;
7013;SDS011;3547;50.774;12.918;2023-06-10T11:12:02;7.22;;;3.75;;
7013;SDS011;3547;50.774;12.918;2023-06-10T11:14:36;4.35;;;3.50;;
7013;SDS011;3547;50.774;12.918;2023-06-10T11:17:04;4.20;;;3.60;;
7013;SDS011;3547;50.774;12.918;2023-06-10T11:19:52;4.43;;;3.67;;
7013;SDS011;3547;50.774;12.918;2023-06-10T11:22:18;3.58;;;3.28;;
7013;SDS011;3547;50.774;12.918;2023-06-10T11:24:50;3.60;;;3.30;;
7013;SDS011;3547;50.774;12.918;2023-06-10T11:27:24;3.65;;;3.35;;
7013;SDS011;3547;50.774;12.918;2023-06-10T11:30:21;4.13;;;3.63;;
7013;SDS011;3547;50.774;12.918;2023-06-10T11:32:51;6.25;;;3.17;;
7013;SDS011;3547;50.774;12.918;2023-06-10T11:38:41;3.42;;;3.13;;
7013;SDS011;3547;50.774;12.918;2023-06-10T11:41:09;3.95;;;3.58;;
7013;SDS011;3547;50.774;12.918;2023-06-10T11:43:38;3.65;;;3.35;;
7013;SDS011;3547;50.774;12.918;2023-06-10T11:46:12;3.70;;;3.40;;
7013;SDS011;3547;50.774;12.918;2023-06-10T11:48:55;4.93;;;3.42;;
7013;SDS011;3547;50.774;12.918;2023-06-10T11:51:26;3.58;;;3.28;;
7013;SDS011;3547;50.774;12.918;2023-06-10T11:53:59;3.75;;;3.42;;
7013;SDS011;3547;50.774;12.918;2023-06-10T11:56:27;4.70;;;3.45;;
7013;SDS011;3547;50.774;12.918;2023-06-10T11:58:56;4.45;;;3.13;;
7013;SDS011;3547;50.774;12.918;2023-06-10T12:01:35;5.43;;;3.58;;
7013;SDS011;3547;50.774;12.918;2023-06-10T12:04:07;5.00;;;3.53;;
7013;SDS011;3547;50.774;12.918;2023-06-10T12:06:38;3.03;;;2.75;;
7013;SDS011;3547;50.774;12.918;2023-06-10T12:12:00;3.80;;;3.47;;
7013;SDS011;3547;50.774;12.918;2023-06-10T12:14:50;3.20;;;3.00;;
7013;SDS011;3547;50.774;12.918;2023-06-10T12:17:21;3.65;;;3.33;;
7013;SDS011;3547;50.774;12.918;2023-06-10T12:19:53;3.30;;;3.00;;
7013;SDS011;3547;50.774;12.918;2023-06-10T12:22:20;3.85;;;3.50;;
7013;SDS011;3547;50.774;12.918;2023-06-10T12:24:58;5.18;;;3.15;;
7013;SDS011;3547;50.774;12.918;2023-06-10T12:27:32;3.38;;;3.08;;
7013;SDS011;3547;50.774;12.918;2023-06-10T12:29:59;4.28;;;3.10;;
7013;SDS011;3547;50.774;12.918;2023-06-10T12:32:36;4.72;;;4.25;;
7013;SDS011;3547;50.774;12.918;2023-06-10T12:35:05;3.00;;;2.80;;
7013;SDS011;3547;50.774;12.918;2023-06-10T12:37:32;3.47;;;3.17;;
7013;SDS011;3547;50.774;12.918;2023-06-10T12:40:02;3.47;;;3.17;;
7013;SDS011;3547;50.774;12.918;2023-06-10T12:42:31;3.05;;;2.85;;
7013;SDS011;3547;50.774;12.918;2023-06-10T12:45:02;4.88;;;3.05;;
7013;SDS011;3547;50.774;12.918;2023-06-10T12:47:32;5.95;;;2.75;;
7013;SDS011;3547;50.774;12.918;2023-06-10T12:50:01;3.83;;;3.20;;
7013;SDS011;3547;50.774;12.918;2023-06-10T12:52:28;3.13;;;2.83;;
7013;SDS011;3547;50.774;12.918;2023-06-10T12:55:00;2.58;;;2.38;;
7013;SDS011;3547;50.774;12.918;2023-06-10T12:57:26;4.15;;;3.13;;
7013;SDS011;3547;50.774;12.918;2023-06-10T12:59:53;4.53;;;3.40;;
7013;SDS011;3547;50.774;12.918;2023-06-10T13:02:19;2.92;;;2.72;;
7013;SDS011;3547;50.774;12.918;2023-06-10T13:04:46;3.60;;;3.30;;
7013;SDS011;3547;50.774;12.918;2023-06-10T13:07:13;3.20;;;2.90;;
7013;SDS011;3547;50.774;12.918;2023-06-10T13:09:39;3.55;;;3.25;;
7013;SDS011;3547;50.774;12.918;2023-06-10T13:12:06;3.33;;;3.03;;
7013;SDS011;3547;50.774;12.918;2023-06-10T13:14:33;5.07;;;3.42;;
7013;SDS011;3547;50.774;12.918;2023-06-10T13:17:00;3.25;;;2.95;;
7013;SDS011;3547;50.774;12.918;2023-06-10T13:19:26;3.60;;;3.30;;
7013;SDS011;3547;50.774;12.918;2023-06-10T13:21:54;3.53;;;2.83;;
7013;SDS011;3547;50.774;12.918;2023-06-10T13:24:20;3.30;;;3.00;;
7013;SDS011;3547;50.774;12.918;2023-06-10T13:26:51;3.53;;;3.22;;
7013;SDS011;3547;50.774;12.918;2023-06-10T13:29:24;3.55;;;3.25;;
7013;SDS011;3547;50.774;12.918;2023-06-10T13:31:51;3.33;;;2.92;;
7013;SDS011;3547;50.774;12.918;2023-06-10T13:34:17;3.88;;;3.50;;
7013;SDS011;3547;50.774;12.918;2023-06-10T13:36:43;3.70;;;3.40;;
7013;SDS011;3547;50.774;12.918;2023-06-10T13:39:10;3.75;;;3.45;;
7013;SDS011;3547;50.774;12.918;2023-06-10T13:41:43;3.85;;;3.00;;
7013;SDS011;3547;50.774;12.918;2023-06-10T13:44:09;3.65;;;3.40;;
7013;SDS011;3547;50.774;12.918;2023-06-10T13:46:35;4.03;;;3.35;;
7013;SDS011;3547;50.774;12.918;2023-06-10T13:49:05;4.10;;;3.03;;
7013;SDS011;3547;50.774;12.918;2023-06-10T13:51:31;4.03;;;3.08;;
7013;SDS011;3547;50.774;12.918;2023-06-10T13:53:58;4.43;;;3.65;;
7013;SDS011;3547;50.774;12.918;2023-06-10T13:56:25;3.13;;;2.83;;
7013;SDS011;3547;50.774;12.918;2023-06-10T13:58:54;3.38;;;3.08;;
7013;SDS011;3547;50.774;12.918;2023-06-10T14:01:22;5.07;;;2.95;;
7013;SDS011;3547;50.774;12.918;2023-06-10T14:03:48;3.67;;;3.10;;
7013;SDS011;3547;50.774;12.918;2023-06-10T14:06:16;3.30;;;3.00;;
7013;SDS011;3547;50.774;12.918;2023-06-10T14:08:44;3.35;;;3.05;;
7013;SDS011;3547;50.774;12.918;2023-06-10T14:11:11;3.05;;;2.75;;
7013;SDS011;3547;50.774;12.918;2023-06-10T14:13:37;4.20;;;3.35;;
7013;SDS011;3547;50.774;12.918;2023-06-10T14:16:04;4.35;;;3.95;;
7013;SDS011;3547;50.774;12.918;2023-06-10T14:18:30;3.83;;;3.40;;
7013;SDS011;3547;50.774;12.918;2023-06-10T14:20:56;3.22;;;2.92;;
7013;SDS011;3547;50.774;12.918;2023-06-10T14:23:23;3.65;;;3.35;;
7013;SDS011;3547;50.774;12.918;2023-06-10T14:25:56;3.47;;;3.17;;
7013;SDS011;3547;50.774;12.918;2023-06-10T14:28:22;3.80;;;3.42;;
7013;SDS011;3547;50.774;12.918;2023-06-10T14:30:49;3.53;;;3.10;;
7013;SDS011;3547;50.774;12.918;2023-06-10T14:33:15;3.65;;;3.35;;
7013;SDS011;3547;50.774;12.918;2023-06-10T14:35:44;3.42;;;3.13;;
7013;SDS011;3547;50.774;12.918;2023-06-10T14:38:11;4.45;;;3.47;;
7013;SDS011;3547;50.774;12.918;2023-06-10T14:40:37;3.20;;;3.00;;
7013;SDS011;3547;50.774;12.918;2023-06-10T14:43:03;3.75;;;3.45;;
7013;SDS011;3547;50.774;12.918;2023-06-10T14:45:41;4.90;;;2.95;;
7013;SDS011;3547;50.774;12.918;2023-06-10T14:48:08;5.32;;;3.35;;
7013;SDS011;3547;50.774;12.918;2023-06-10T14:50:34;5.72;;;3.30;;
7013;SDS011;3547;50.774;12.918;2023-06-10T14:53:13;3.42;;;3.13;;
7013;SDS011;3547;50.774;12.918;2023-06-10T14:55:41;4.18;;;3.63;;
7013;SDS011;3547;50.774;12.918;2023-06-10T14:58:35;3.13;;;2.92;;
7013;SDS011;3547;50.774;12.918;2023-06-10T15:01:10;3.45;;;3.20;;
7013;SDS011;3547;50.774;12.918;2023-06-10T15:03:41;3.78;;;3.47;;
7013;SDS011;3547;50.774;12.918;2023-06-10T15:06:12;4.10;;;3.65;;
7013;SDS011;3547;50.774;12.918;2023-06-10T15:08:38;3.78;;;3.38;;
7013;SDS011;3547;50.774;12.918;2023-06-10T15:11:05;3.35;;;3.05;;
7013;SDS011;3547;50.774;12.918;2023-06-10T15:13:31;3.50;;;3.20;;
7013;SDS011;3547;50.774;12.918;2023-06-10T15:15:57;3.70;;;3.40;;
7013;SDS011;3547;50.774;12.918;2023-06-10T15:18:24;3.47;;;3.17;;
7013;SDS011;3547;50.774;12.918;2023-06-10T15:20:50;3.53;;;3.22;;
7013;SDS011;3547;50.774;12.918;2023-06-10T15:23:16;3.75;;;3.53;;
7013;SDS011;3547;50.774;12.918;2023-06-10T15:25:43;4.95;;;3.40;;
7013;SDS011;3547;50.774;12.918;2023-06-10T15:28:09;4.28;;;3.85;;
7013;SDS011;3547;50.774;12.918;2023-06-10T15:30:35;4.30;;;3.90;;
7013;SDS011;3547;50.774;12.918;2023-06-10T15:33:02;4.38;;;3.83;;
7013;SDS011;3547;50.774;12.918;2023-06-10T15:35:29;4.22;;;3.92;;
7013;SDS011;3547;50.774;12.918;2023-06-10T15:37:57;5.18;;;4.68;;
7013;SDS011;3547;50.774;12.918;2023-06-10T15:40:23;6.55;;;4.25;;
7013;SDS011;3547;50.774;12.918;2023-06-10T15:42:49;4.28;;;3.88;;
7013;SDS011;3547;50.774;12.918;2023-06-10T15:45:17;4.00;;;3.70;;
7013;SDS011;3547;50.774;12.918;2023-06-10T15:47:46;3.70;;;3.40;;
7013;SDS011;3547;50.774;12.918;2023-06-10T15:50:12;4.03;;;3.72;;
7013;SDS011;3547;50.774;12.918;2023-06-10T15:52:41;7.18;;;3.97;;